createdAt,value
2023-04-02T00:02:20.950Z,97.4834
2023-04-02T00:07:21.602Z,97.35254
2023-04-02T00:12:20.799Z,97.42676
2023-04-02T00:17:10.828Z,97.4082
2023-04-02T00:22:12.353Z,97.25977
2023-04-02T00:27:11.380Z,97.23633
2023-04-02T00:32:10.918Z,97.16699
2023-04-02T00:37:09.784Z,97.17871
2023-04-02T00:42:11.371Z,96.92773
2023-04-02T00:47:15.402Z,96.75195
2023-04-02T00:52:13.759Z,96.8457
2023-04-02T00:57:18.061Z,96.89844
2023-04-02T01:02:22.576Z,96.98145
2023-04-02T01:07:12.405Z,96.81152
2023-04-02T01:12:24.805Z,96.88867
2023-04-02T01:17:15.628Z,96.51172
2023-04-02T01:22:12.033Z,96.5459
2023-04-02T01:27:10.795Z,96.48047
2023-04-02T01:32:15.705Z,96.28906
2023-04-02T01:37:25.680Z,96.34766
2023-04-02T01:42:14.337Z,96.26563
2023-04-02T01:47:17.103Z,96.29883
2023-04-02T01:52:13.170Z,96.24707
2023-04-02T01:57:11.837Z,96.14453
2023-04-02T02:02:10.727Z,96.20605
2023-04-02T02:07:10.443Z,96.07617
2023-04-02T02:12:10.595Z,96.05859
2023-04-02T02:17:13.386Z,96.11426
2023-04-02T02:22:13.577Z,95.90137
2023-04-02T02:27:25.213Z,95.92773
2023-04-02T02:32:11.975Z,95.99316
2023-04-02T02:37:13.546Z,95.80762
2023-04-02T02:42:12.609Z,95.7334
2023-04-02T02:47:13.739Z,95.69922
2023-04-02T02:52:17.340Z,95.69922
2023-04-02T02:57:11.785Z,95.54688
2023-04-02T03:02:12.505Z,95.43555
2023-04-02T03:07:12.026Z,95.54004
2023-04-02T03:12:18.448Z,95.41504
2023-04-02T03:17:14.943Z,95.5
2023-04-02T03:22:12.719Z,95.31934
2023-04-02T03:27:15.650Z,95.27344
2023-04-02T03:32:12.183Z,95.23242
2023-04-02T03:37:15.020Z,95.02734
2023-04-02T03:42:13.453Z,95.07617
2023-04-02T03:47:15.237Z,94.85059
2023-04-02T03:52:14.435Z,94.94629
2023-04-02T03:57:10.852Z,94.80371
2023-04-02T04:02:15.906Z,94.77734
2023-04-02T04:07:15.391Z,94.5752
2023-04-02T04:12:12.705Z,94.53125
2023-04-02T04:17:24.821Z,94.52734
2023-04-02T04:22:30.558Z,94.41406
2023-04-02T04:27:21.741Z,94.57715
2023-04-02T04:32:20.735Z,94.23438
2023-04-02T04:37:14.402Z,93.95605
2023-04-02T04:42:18.485Z,94.16699
2023-04-02T04:47:22.581Z,93.76758
2023-04-02T04:52:13.964Z,93.79785
2023-04-02T04:57:10.892Z,93.81543
2023-04-02T05:02:16.150Z,93.45117
2023-04-02T05:07:12.788Z,93.37109
2023-04-02T05:12:12.178Z,93.42285
2023-04-02T05:17:14.631Z,93.25684
2023-04-02T05:22:19.115Z,92.91895
2023-04-02T05:27:13.530Z,92.91602
2023-04-02T05:32:12.753Z,92.72168
2023-04-02T05:37:09.955Z,92.5166
2023-04-02T05:42:10.594Z,92.40625
2023-04-02T05:47:12.458Z,92.1748
2023-04-02T05:52:12.449Z,92.11719
2023-04-02T05:57:14.404Z,92.08203
2023-04-02T06:02:21.557Z,91.7832
2023-04-02T06:07:12.288Z,91.61621
2023-04-02T06:12:16.429Z,91.67871
2023-04-02T06:17:18.780Z,91.8291
2023-04-02T06:22:20.737Z,91.43848
2023-04-02T06:27:10.995Z,91.43652
2023-04-02T06:32:11.513Z,91.2334
2023-04-02T06:37:26.794Z,91.06934
2023-04-02T06:42:14.315Z,91.29395
2023-04-02T06:47:14.473Z,90.9248
2023-04-02T06:52:15.359Z,90.81934
2023-04-02T06:57:11.179Z,90.46582
2023-04-02T07:02:18.501Z,90.41699
2023-04-02T07:07:12.604Z,89.70801
2023-04-02T07:12:14.687Z,89.97461
2023-04-02T07:17:10.655Z,89.50195
2023-04-02T07:22:09.635Z,89.41211
2023-04-02T07:27:12.366Z,89.0166
2023-04-02T07:32:10.147Z,89.50977
2023-04-02T07:37:10.746Z,88.83789
2023-04-02T07:42:09.555Z,88.73438
2023-04-02T07:47:10.605Z,88.58398
2023-04-02T07:52:14.945Z,88.31543
2023-04-02T07:57:12.546Z,89.8418
2023-04-02T08:02:10.170Z,86.67188
2023-04-02T08:07:09.497Z,85.73047
2023-04-02T08:12:13.995Z,85.69043
2023-04-02T08:17:09.725Z,84.59082
2023-04-02T08:22:09.317Z,84.54004
2023-04-02T08:27:09.890Z,82.85254
2023-04-02T08:32:11.580Z,81.05176
2023-04-02T08:37:09.315Z,79.51953
2023-04-02T08:42:11.493Z,80.58496
2023-04-02T08:47:10.792Z,80.4209
2023-04-02T08:52:09.436Z,79.99512
2023-04-02T08:57:11.752Z,78.60938
2023-04-02T09:02:24.186Z,78.25098
2023-04-02T09:07:09.265Z,76.32129
2023-04-02T09:12:15.481Z,77.8623
2023-04-02T09:17:13.349Z,76.39551
2023-04-02T09:22:13.066Z,77.375
2023-04-02T09:27:20.964Z,76.49805
2023-04-02T09:32:13.866Z,75.69141
2023-04-02T09:37:17.872Z,75.58301
2023-04-02T09:42:23.523Z,75.93164
2023-04-02T09:47:11.020Z,73.92578
2023-04-02T09:52:21.066Z,73.2002
2023-04-02T09:57:09.354Z,71.88086
2023-04-02T10:02:23.391Z,71.47949
2023-04-02T10:07:10.540Z,71.05664
2023-04-02T10:12:11.041Z,70.07129
2023-04-02T10:17:12.060Z,70.94141
2023-04-02T10:22:14.911Z,72.82324
2023-04-02T10:27:17.708Z,67.64746
2023-04-02T10:32:11.329Z,67.58594
2023-04-02T10:37:13.467Z,68.16309
2023-04-02T10:42:16.369Z,72.72656
2023-04-02T10:47:13.505Z,73.7168
2023-04-02T10:52:16.228Z,74.24512
2023-04-02T10:57:11.736Z,70.29688
2023-04-02T11:02:18.921Z,74.94629
2023-04-02T11:07:15.106Z,73.3457
2023-04-02T11:12:11.400Z,74.11328
2023-04-02T11:17:09.506Z,77.90332
2023-04-02T11:22:21.144Z,77.79785
2023-04-02T11:27:19.778Z,75.83887
2023-04-02T11:32:30.097Z,78.34766
2023-04-02T11:37:15.197Z,79.74316
2023-04-02T11:42:20.400Z,76.71191
2023-04-02T11:47:26.766Z,76.98047
2023-04-02T11:52:19.821Z,81.12305
2023-04-02T11:57:13.533Z,77.05664
2023-04-02T12:02:14.293Z,80.71191
2023-04-02T12:07:35.071Z,78.11328
2023-04-02T12:12:19.623Z,78.71484
2023-04-02T12:17:16.893Z,78.03516
2023-04-02T12:22:11.808Z,76.3125
2023-04-02T12:27:24.487Z,77.45313
2023-04-02T12:32:19.345Z,78.85547
2023-04-02T12:37:09.443Z,77.24707
2023-04-02T12:42:20.462Z,76.88965
2023-04-02T12:47:09.410Z,78.46289
2023-04-02T12:52:12.672Z,75.69922
2023-04-02T12:57:20.715Z,77.06543
2023-04-02T13:02:21.457Z,77.77148
2023-04-02T13:07:10.018Z,78.70215
2023-04-02T13:12:09.579Z,79.15137
2023-04-02T13:17:19.305Z,78.59766
2023-04-02T13:22:19.946Z,78.29785
2023-04-02T13:27:09.318Z,79.2373
2023-04-02T13:32:14.474Z,77.02832
2023-04-02T13:37:10.132Z,77.43457
2023-04-02T13:42:10.882Z,77.43945
2023-04-02T13:47:09.356Z,77.80957
2023-04-02T13:52:11.464Z,79.15137
2023-04-02T13:57:09.484Z,77.94238
2023-04-02T14:02:17.212Z,77.5752
2023-04-02T14:07:23.199Z,78.02148
2023-04-02T14:12:11.208Z,78.00391
2023-04-02T14:17:16.981Z,76.94141
2023-04-02T14:22:17.160Z,77.29492
2023-04-02T14:27:23.903Z,78.98145
2023-04-02T14:32:11.551Z,77.66406
2023-04-02T14:37:14.992Z,76.62793
2023-04-02T14:42:13.796Z,77.62012
2023-04-02T14:47:17.069Z,77.79492
2023-04-02T14:52:14.910Z,77.19727
2023-04-02T14:57:16.784Z,76.36523
2023-04-02T15:02:18.160Z,78.37207
2023-04-02T15:07:11.769Z,76.80957
2023-04-02T15:12:11.321Z,76.36035
2023-04-02T15:17:10.247Z,75.61426
2023-04-02T15:22:27.146Z,76.12793
2023-04-02T15:27:24.331Z,76.04785
2023-04-02T15:32:14.363Z,77.23828
2023-04-02T15:37:17.210Z,75.87012
2023-04-02T15:42:15.038Z,77.11035
2023-04-02T15:47:16.269Z,76.30371
2023-04-02T15:52:13.621Z,76.62109
2023-04-02T15:57:17.876Z,74.77637
2023-04-02T16:02:16.768Z,74.07031
2023-04-02T16:07:19.934Z,73.87598
2023-04-02T16:12:16.205Z,74.84473
2023-04-02T16:17:21.437Z,72.72461
2023-04-02T16:22:14.557Z,75.40332
2023-04-02T16:27:21.406Z,75.7334
2023-04-02T16:32:13.676Z,75.34961
2023-04-02T16:37:14.674Z,74.97656
2023-04-02T16:42:14.945Z,74.07129
2023-04-02T16:47:18.098Z,75.76563
2023-04-02T16:52:16.106Z,74.0957
2023-04-02T16:57:18.212Z,73.01563
2023-04-02T17:02:21.541Z,74.29883
2023-04-02T17:07:14.029Z,72.54883
2023-04-02T17:12:18.751Z,75.51172
2023-04-02T17:17:09.356Z,73.47363
2023-04-02T17:22:09.494Z,74.38184
2023-04-02T17:27:10.611Z,74.51074
2023-04-02T17:32:10.584Z,75.6377
2023-04-02T17:37:19.501Z,76.27441
2023-04-02T17:42:14.024Z,76.44141
2023-04-02T17:47:15.552Z,76.94434
2023-04-02T17:52:13.347Z,75.34668
2023-04-02T17:57:20.492Z,75.62891
2023-04-02T18:02:19.200Z,75.91016
2023-04-02T18:07:22.647Z,75.82813
2023-04-02T18:12:17.309Z,75.09668
2023-04-02T18:17:17.572Z,76.01758
2023-04-02T18:22:13.634Z,75.76172
2023-04-02T18:27:17.050Z,76.2373
2023-04-02T18:32:15.375Z,75.89746
2023-04-02T18:37:17.792Z,74.04492
2023-04-02T18:42:12.984Z,75.45703
2023-04-02T18:47:14.873Z,74.46484
2023-04-02T18:52:15.440Z,75.72559
2023-04-02T18:57:15.762Z,75.91406
2023-04-02T19:02:18.561Z,75.59863
2023-04-02T19:07:16.331Z,76.24609
2023-04-02T19:12:16.523Z,74.68848
2023-04-02T19:17:14.350Z,76.68457
2023-04-02T19:22:17.202Z,76.15332
2023-04-02T19:27:13.867Z,76.1582
2023-04-02T19:32:16.227Z,75.98926
2023-04-02T19:37:15.201Z,76.35449
2023-04-02T19:42:15.410Z,76.61426
2023-04-02T19:47:10.940Z,76.04492
2023-04-02T19:52:09.228Z,76.10352
2023-04-02T19:57:09.899Z,75.7998
2023-04-02T20:02:10.447Z,76.13086
2023-04-02T20:07:09.532Z,76.34375
2023-04-02T20:12:11.426Z,76.37305
2023-04-02T20:17:09.485Z,76.59082
2023-04-02T20:22:12.040Z,77.46289
2023-04-02T20:27:09.712Z,76.77832
2023-04-02T20:32:12.872Z,77.04199
2023-04-02T20:37:09.724Z,77.4043
2023-04-02T20:42:11.919Z,77.1123
2023-04-02T20:47:10.710Z,77.64258
2023-04-02T20:52:09.632Z,77.4375
2023-04-02T20:57:11.001Z,77.3623
2023-04-02T21:02:09.799Z,77.45898
2023-04-02T21:07:09.208Z,77.52539
2023-04-02T21:12:12.304Z,77.54102
2023-04-02T21:17:12.564Z,77.5166
2023-04-02T21:22:11.779Z,77.66797
2023-04-02T21:27:09.238Z,77.69141
2023-04-02T21:32:20.773Z,77.6709
2023-04-02T21:37:10.364Z,77.7666
2023-04-02T21:42:11.230Z,77.93262
2023-04-02T21:47:09.683Z,77.91602
2023-04-02T21:52:09.201Z,77.85938
2023-04-02T21:57:09.255Z,77.95313
2023-04-02T22:02:09.179Z,77.86035
2023-04-02T22:07:09.222Z,77.7959
2023-04-02T22:12:09.422Z,77.79102
2023-04-02T22:17:10.965Z,77.64844
2023-04-02T22:22:12.387Z,77.56934
2023-04-02T22:27:09.255Z,77.5918
2023-04-02T22:32:09.181Z,77.76758
2023-04-02T22:37:09.379Z,77.72656
2023-04-02T22:42:09.350Z,77.59863
2023-04-02T22:47:09.555Z,77.61719
2023-04-02T22:52:09.622Z,77.26855
2023-04-02T22:57:09.488Z,77.28711
2023-04-02T23:02:10.305Z,77.44238
2023-04-02T23:07:11.693Z,77.61816
2023-04-02T23:12:09.358Z,77.45313
2023-04-02T23:17:09.050Z,77.48438
2023-04-02T23:22:09.364Z,77.93848
2023-04-02T23:27:09.522Z,77.72461
2023-04-02T23:32:09.566Z,77.75195
2023-04-02T23:37:09.214Z,78.01367
2023-04-02T23:42:09.460Z,77.83594
2023-04-02T23:47:17.943Z,77.82129
2023-04-02T23:52:09.334Z,77.63867
2023-04-02T23:57:09.275Z,77.91504
